createdAt,value
2022-12-17T00:02:23.873Z,98.29
2022-12-17T00:05:11.305Z,98.12
2022-12-17T00:07:58.601Z,98.10
2022-12-17T00:10:45.822Z,98.12
2022-12-17T00:13:41.407Z,98.02
2022-12-17T00:16:28.615Z,97.98
2022-12-17T00:19:15.764Z,97.82
2022-12-17T00:22:02.907Z,97.95
2022-12-17T00:24:50.157Z,97.94
2022-12-17T00:27:37.372Z,98.10
2022-12-17T00:30:25.254Z,97.87
2022-12-17T00:33:12.279Z,98.04
2022-12-17T00:35:59.582Z,98.16
2022-12-17T00:39:03.883Z,98.10
2022-12-17T00:41:50.820Z,98.23
2022-12-17T00:44:38.049Z,98.52
2022-12-17T00:47:25.104Z,98.52
2022-12-17T00:50:12.333Z,98.55
2022-12-17T00:52:59.412Z,98.40
2022-12-17T00:55:46.443Z,98.33
2022-12-17T00:58:33.500Z,98.35
2022-12-17T01:01:20.986Z,98.45
2022-12-17T01:04:08.573Z,98.59
2022-12-17T01:06:55.500Z,98.46
2022-12-17T01:09:43.605Z,98.43
2022-12-17T01:12:41.617Z,98.59
2022-12-17T01:15:28.910Z,98.41
2022-12-17T01:18:16.067Z,98.26
2022-12-17T01:21:03.297Z,98.23
2022-12-17T01:23:50.509Z,98.47
2022-12-17T01:26:37.818Z,98.61
2022-12-17T01:29:24.970Z,98.58
2022-12-17T01:32:12.208Z,98.51
2022-12-17T01:34:59.233Z,98.54
2022-12-17T01:37:46.540Z,98.56
2022-12-17T01:40:34.543Z,98.55
2022-12-17T01:43:21.968Z,98.58
2022-12-17T01:46:09.794Z,98.72
2022-12-17T01:49:05.898Z,98.81
2022-12-17T01:51:54.303Z,98.69
2022-12-17T01:54:41.338Z,98.83
2022-12-17T01:57:28.394Z,98.89
2022-12-17T02:00:23.511Z,98.64
2022-12-17T02:03:10.709Z,98.90
2022-12-17T02:06:31.091Z,98.95
2022-12-17T02:09:30.426Z,98.96
2022-12-17T02:12:45.271Z,99.01
2022-12-17T02:15:46.827Z,98.93
2022-12-17T02:18:42.050Z,98.99
2022-12-17T02:21:30.869Z,98.90
2022-12-17T02:24:56.642Z,99.01
2022-12-17T02:27:44.712Z,98.78
2022-12-17T02:30:32.429Z,98.67
2022-12-17T02:33:20.909Z,98.64
2022-12-17T02:36:18.662Z,98.71
2022-12-17T02:39:05.690Z,98.74
2022-12-17T02:42:07.503Z,98.85
2022-12-17T02:44:55.977Z,98.70
2022-12-17T02:47:44.040Z,98.76
2022-12-17T02:50:32.137Z,98.53
2022-12-17T02:53:21.207Z,98.50
2022-12-17T02:56:08.367Z,98.55
2022-12-17T02:58:55.321Z,98.56
2022-12-17T03:01:42.457Z,98.65
2022-12-17T03:04:29.809Z,98.81
2022-12-17T03:07:17.163Z,98.68
2022-12-17T03:10:04.313Z,98.81
2022-12-17T03:12:51.786Z,98.99
2022-12-17T03:15:39.191Z,98.73
2022-12-17T03:18:26.424Z,98.89
2022-12-17T03:21:14.384Z,98.85
2022-12-17T03:24:01.588Z,98.79
2022-12-17T03:26:50.612Z,98.78
2022-12-17T03:29:37.605Z,99.08
2022-12-17T03:32:24.880Z,99.13
2022-12-17T03:35:11.936Z,99.12
2022-12-17T03:37:59.005Z,98.94
2022-12-17T03:40:45.928Z,98.88
2022-12-17T03:43:33.652Z,99.12
2022-12-17T03:46:21.207Z,99.02
2022-12-17T03:49:08.391Z,99.04
2022-12-17T03:51:55.542Z,98.89
2022-12-17T03:54:42.883Z,98.80
2022-12-17T03:57:30.323Z,99.03
2022-12-17T04:00:17.538Z,99.05
2022-12-17T04:03:04.926Z,99.05
2022-12-17T04:05:52.070Z,98.96
2022-12-17T04:08:39.454Z,99.19
2022-12-17T04:11:26.538Z,99.30
2022-12-17T04:14:13.755Z,99.48
2022-12-17T04:17:00.817Z,99.62
2022-12-17T04:19:48.282Z,99.54
2022-12-17T04:22:35.379Z,99.27
2022-12-17T04:25:23.263Z,99.29
2022-12-17T04:28:10.203Z,99.07
2022-12-17T04:30:57.817Z,98.88
2022-12-17T04:33:45.288Z,98.89
2022-12-17T04:36:32.485Z,98.95
2022-12-17T04:39:19.740Z,98.95
2022-12-17T04:42:07.037Z,99.10
2022-12-17T04:44:54.240Z,99.07
2022-12-17T04:47:41.281Z,99.18
2022-12-17T04:50:28.426Z,99.15
2022-12-17T04:53:24.674Z,99.17
2022-12-17T04:56:13.630Z,99.19
2022-12-17T04:59:00.860Z,99.17
2022-12-17T05:01:48.156Z,98.98
2022-12-17T05:04:40.088Z,98.91
2022-12-17T05:07:27.402Z,99.12
2022-12-17T05:10:14.486Z,99.35
2022-12-17T05:13:04.744Z,99.37
2022-12-17T05:15:53.386Z,99.43
2022-12-17T05:18:41.023Z,99.57
2022-12-17T05:21:33.192Z,99.41
2022-12-17T05:24:20.824Z,99.43
2022-12-17T05:27:07.905Z,99.42
2022-12-17T05:29:54.861Z,99.38
2022-12-17T05:32:42.206Z,99.47
2022-12-17T05:35:29.621Z,99.41
2022-12-17T05:38:26.560Z,99.25
2022-12-17T05:41:17.214Z,99.29
2022-12-17T05:44:04.495Z,99.20
2022-12-17T05:46:51.525Z,99.29
2022-12-17T05:49:38.732Z,99.18
2022-12-17T05:52:25.823Z,99.38
2022-12-17T05:55:13.052Z,99.47
2022-12-17T05:58:00.113Z,99.28
2022-12-17T06:00:47.438Z,99.17
2022-12-17T06:03:35.412Z,99.17
2022-12-17T06:06:22.981Z,99.16
2022-12-17T06:09:10.271Z,99.06
2022-12-17T06:12:02.544Z,99.07
2022-12-17T06:14:50.466Z,99.16
2022-12-17T06:17:37.507Z,99.17
2022-12-17T06:20:25.394Z,99.00
2022-12-17T06:23:25.670Z,99.21
2022-12-17T06:26:14.741Z,99.51
2022-12-17T06:29:02.240Z,99.35
2022-12-17T06:31:49.562Z,99.34
2022-12-17T06:34:36.987Z,99.41
2022-12-17T06:37:24.210Z,99.49
2022-12-17T06:40:11.268Z,99.61
2022-12-17T06:42:58.538Z,99.70
2022-12-17T06:45:45.962Z,99.75
2022-12-17T06:48:33.193Z,99.79
2022-12-17T06:51:20.354Z,99.80
2022-12-17T06:54:07.590Z,99.87
2022-12-17T06:56:54.746Z,99.68
2022-12-17T06:59:41.876Z,99.89
2022-12-17T07:02:29.892Z,99.90
2022-12-17T07:05:17.375Z,99.83
2022-12-17T07:08:04.841Z,99.82
2022-12-17T07:10:51.953Z,100.00
2022-12-17T07:13:40.182Z,99.98
2022-12-17T07:16:27.258Z,99.97
2022-12-17T07:19:14.546Z,99.94
2022-12-17T07:22:01.512Z,100.00
2022-12-17T07:24:48.876Z,100.00
2022-12-17T07:27:36.143Z,100.00
2022-12-17T07:30:24.258Z,100.00
2022-12-17T07:33:25.416Z,99.96
2022-12-17T07:36:13.456Z,99.79
2022-12-17T07:39:00.651Z,99.81
2022-12-17T07:41:47.880Z,99.87
2022-12-17T07:44:35.254Z,99.77
2022-12-17T07:47:22.175Z,99.84
2022-12-17T07:50:09.259Z,99.53
2022-12-17T07:52:56.269Z,99.67
2022-12-17T07:55:43.428Z,99.68
2022-12-17T07:58:30.637Z,99.66
2022-12-17T08:01:21.266Z,99.61
2022-12-17T08:04:08.671Z,99.50
2022-12-17T08:07:01.637Z,99.60
2022-12-17T08:09:51.836Z,99.45
2022-12-17T08:12:38.992Z,99.33
2022-12-17T08:15:26.309Z,99.35
2022-12-17T08:18:26.055Z,99.41
2022-12-17T08:21:13.825Z,99.24
2022-12-17T08:24:00.996Z,98.97
2022-12-17T08:26:48.559Z,98.90
2022-12-17T08:29:35.646Z,98.80
2022-12-17T08:32:22.999Z,98.85
2022-12-17T08:35:10.184Z,98.95
2022-12-17T08:37:57.806Z,99.11
2022-12-17T08:40:45.068Z,99.06
2022-12-17T08:43:32.609Z,98.70
2022-12-17T08:46:19.756Z,98.86
2022-12-17T08:49:06.884Z,99.01
2022-12-17T08:51:54.518Z,98.91
2022-12-17T08:54:41.533Z,99.13
2022-12-17T08:57:32.500Z,99.15
2022-12-17T09:00:19.874Z,98.88
2022-12-17T09:03:06.949Z,98.67
2022-12-17T09:05:54.546Z,98.37
2022-12-17T09:08:41.664Z,98.45
2022-12-17T09:11:28.626Z,98.45
2022-12-17T09:14:15.927Z,98.45
2022-12-17T09:17:03.128Z,97.67
2022-12-17T09:19:50.155Z,97.50
2022-12-17T09:22:37.674Z,97.38
2022-12-17T09:25:25.710Z,97.42
2022-12-17T09:28:12.780Z,97.39
2022-12-17T09:31:00.105Z,97.38
2022-12-17T09:33:47.307Z,97.41
2022-12-17T09:36:34.341Z,96.95
2022-12-17T09:39:21.603Z,97.11
2022-12-17T09:42:35.308Z,97.32
2022-12-17T09:45:35.094Z,97.25
2022-12-17T09:49:06.060Z,97.44
2022-12-17T09:51:54.366Z,97.05
2022-12-17T09:55:08.760Z,97.02
2022-12-17T09:57:56.988Z,96.70
2022-12-17T10:00:48.216Z,96.54
2022-12-17T10:03:38.937Z,96.63
2022-12-17T10:06:47.235Z,96.35
2022-12-17T10:09:37.776Z,96.48
2022-12-17T10:12:38.170Z,96.89
2022-12-17T10:15:31.759Z,96.31
2022-12-17T10:18:33.250Z,96.26
2022-12-17T10:21:27.401Z,96.35
2022-12-17T10:24:29.481Z,96.46
2022-12-17T10:27:16.727Z,96.44
2022-12-17T10:30:03.805Z,96.23
2022-12-17T10:32:51.169Z,96.30
2022-12-17T10:35:53.834Z,96.30
2022-12-17T10:38:48.226Z,96.74
2022-12-17T10:41:50.893Z,96.62
2022-12-17T10:44:58.408Z,96.33
2022-12-17T10:47:47.042Z,96.19
2022-12-17T10:50:41.535Z,95.86
2022-12-17T10:53:40.327Z,96.23
2022-12-17T10:56:45.192Z,96.51
2022-12-17T10:59:49.861Z,96.16
2022-12-17T11:02:46.598Z,96.06
2022-12-17T11:05:44.101Z,95.87
2022-12-17T11:08:35.291Z,95.97
2022-12-17T11:11:30.601Z,95.64
2022-12-17T11:14:21.809Z,95.79
2022-12-17T11:17:13.826Z,95.67
2022-12-17T11:20:20.813Z,95.92
2022-12-17T11:23:17.919Z,96.36
2022-12-17T11:26:29.468Z,96.72
2022-12-17T11:29:18.486Z,96.68
2022-12-17T11:32:39.352Z,96.83
2022-12-17T11:35:44.983Z,97.40
2022-12-17T11:38:49.724Z,97.38
2022-12-17T11:41:46.065Z,97.07
2022-12-17T11:44:59.450Z,96.49
2022-12-17T11:48:00.118Z,95.87
2022-12-17T11:51:02.222Z,95.52
2022-12-17T11:54:04.810Z,95.26
2022-12-17T11:57:00.343Z,95.41
2022-12-17T12:00:15.255Z,95.62
2022-12-17T12:03:30.738Z,95.48
2022-12-17T12:06:21.780Z,95.27
2022-12-17T12:10:12.988Z,95.42
2022-12-17T12:13:11.441Z,95.83
2022-12-17T12:16:19.560Z,95.97
2022-12-17T12:19:29.994Z,96.18
2022-12-17T12:22:25.913Z,95.79
2022-12-17T12:26:06.495Z,95.72
2022-12-17T12:29:12.862Z,95.71
2022-12-17T12:32:06.087Z,95.84
2022-12-17T12:34:57.686Z,95.76
2022-12-17T12:37:44.687Z,95.85
2022-12-17T12:40:59.434Z,95.67
2022-12-17T12:43:54.528Z,96.07
2022-12-17T12:47:09.327Z,95.90
2022-12-17T12:50:27.398Z,95.68
2022-12-17T12:53:17.976Z,95.62
2022-12-17T12:56:05.346Z,95.50
2022-12-17T12:58:53.632Z,95.52
2022-12-17T13:01:52.105Z,95.50
2022-12-17T13:04:55.598Z,95.59
2022-12-17T13:07:31.064Z,95.40
2022-12-17T13:10:00.194Z,95.22
2022-12-17T13:12:45.021Z,95.03
2022-12-17T13:15:35.033Z,95.21
2022-12-17T13:18:25.297Z,95.16
2022-12-17T13:21:15.099Z,95.06
2022-12-17T13:23:44.191Z,94.86
2022-12-17T13:26:21.361Z,95.20
2022-12-17T13:29:12.098Z,94.91
2022-12-17T13:32:02.409Z,95.50
2022-12-17T13:34:58.713Z,95.27
2022-12-17T13:37:44.660Z,95.64
2022-12-17T13:40:26.196Z,95.45
2022-12-17T13:42:54.764Z,95.65
2022-12-17T13:45:26.060Z,95.56
2022-12-17T13:47:57.572Z,95.63
2022-12-17T13:50:34.896Z,95.38
2022-12-17T13:53:15.551Z,95.60
2022-12-17T13:55:52.085Z,95.86
2022-12-17T13:58:22.573Z,95.96
2022-12-17T14:00:51.419Z,95.34
2022-12-17T14:03:37.409Z,95.78
2022-12-17T14:06:12.101Z,96.51
2022-12-17T14:08:41.777Z,96.46
2022-12-17T14:11:30.745Z,96.56
2022-12-17T14:13:59.452Z,96.57
2022-12-17T14:16:28.369Z,96.70
2022-12-17T14:18:59.566Z,96.75
2022-12-17T14:21:29.077Z,96.61
2022-12-17T14:23:58.190Z,96.68
2022-12-17T14:26:26.793Z,96.60
2022-12-17T14:28:55.753Z,96.40
2022-12-17T14:31:30.582Z,96.33
2022-12-17T14:34:08.199Z,96.12
2022-12-17T14:36:43.246Z,95.88
2022-12-17T14:39:32.304Z,95.58
2022-12-17T14:42:29.684Z,95.69
2022-12-17T14:45:07.867Z,95.94
2022-12-17T14:47:37.953Z,96.08
2022-12-17T14:50:25.352Z,96.16
2022-12-17T14:52:57.799Z,95.84
2022-12-17T14:55:55.303Z,96.01
2022-12-17T14:58:26.860Z,95.97
2022-12-17T15:01:13.318Z,96.12
2022-12-17T15:03:46.802Z,96.43
2022-12-17T15:06:20.594Z,96.62
2022-12-17T15:08:53.340Z,96.72
2022-12-17T15:11:24.290Z,96.78
2022-12-17T15:13:56.374Z,96.68
2022-12-17T15:16:25.572Z,96.87
2022-12-17T15:18:54.303Z,96.69
2022-12-17T15:21:25.029Z,96.40
2022-12-17T15:23:54.804Z,96.60
2022-12-17T15:26:23.746Z,96.51
2022-12-17T15:28:52.978Z,96.66
2022-12-17T15:31:24.984Z,96.66
2022-12-17T15:33:54.681Z,96.63
2022-12-17T15:36:24.372Z,96.74
2022-12-17T15:38:53.139Z,96.87
2022-12-17T15:41:40.540Z,96.94
2022-12-17T15:44:09.373Z,96.90
2022-12-17T15:46:38.001Z,96.88
2022-12-17T15:49:06.706Z,97.09
2022-12-17T15:51:35.417Z,97.04
2022-12-17T15:54:04.161Z,96.90
2022-12-17T15:56:32.735Z,96.76
2022-12-17T15:59:01.546Z,96.73
2022-12-17T16:01:30.227Z,96.62
2022-12-17T16:03:58.937Z,96.46
2022-12-17T16:06:27.829Z,96.40
2022-12-17T16:08:56.446Z,96.68
2022-12-17T16:11:24.948Z,96.72
2022-12-17T16:13:55.330Z,96.62
2022-12-17T16:16:24.739Z,96.69
2022-12-17T16:18:54.135Z,96.55
2022-12-17T16:21:22.706Z,96.32
2022-12-17T16:23:51.275Z,96.05
2022-12-17T16:26:20.042Z,96.08
2022-12-17T16:28:49.290Z,95.98
2022-12-17T16:31:17.934Z,95.98
2022-12-17T16:33:48.317Z,96.04
2022-12-17T16:36:20.949Z,96.15
2022-12-17T16:38:52.875Z,96.10
2022-12-17T16:41:23.303Z,96.32
2022-12-17T16:43:51.924Z,96.19
2022-12-17T16:46:35.848Z,96.43
2022-12-17T16:49:11.153Z,96.58
2022-12-17T16:51:40.591Z,96.59
2022-12-17T16:54:17.063Z,96.79
2022-12-17T16:56:46.852Z,96.84
2022-12-17T16:59:17.180Z,96.59
2022-12-17T17:01:50.061Z,96.81
2022-12-17T17:04:22.420Z,96.75
2022-12-17T17:06:57.057Z,96.99
2022-12-17T17:09:25.972Z,96.63
2022-12-17T17:11:59.170Z,96.80
2022-12-17T17:14:27.938Z,96.84
2022-12-17T17:16:56.614Z,97.06
2022-12-17T17:19:25.244Z,97.36
2022-12-17T17:21:54.741Z,97.21
2022-12-17T17:24:25.947Z,97.05
2022-12-17T17:26:55.693Z,97.17
2022-12-17T17:29:24.522Z,97.33
2022-12-17T17:34:41.834Z,97.28
2022-12-17T17:37:10.623Z,97.32
2022-12-17T17:39:39.371Z,97.62
2022-12-17T17:42:08.135Z,97.59
2022-12-17T17:44:37.320Z,97.79
2022-12-17T17:47:06.090Z,97.68
2022-12-17T17:49:34.728Z,97.81
2022-12-17T17:52:11.632Z,97.79
2022-12-17T17:54:41.011Z,97.87
2022-12-17T17:57:10.111Z,97.75
2022-12-17T17:59:39.739Z,97.81
2022-12-17T18:02:11.290Z,97.72
2022-12-17T18:04:40.263Z,97.74
2022-12-17T18:07:26.099Z,97.60
2022-12-17T18:09:56.339Z,97.53
2022-12-17T18:12:43.348Z,97.58
2022-12-17T18:15:16.944Z,97.47
2022-12-17T18:17:51.725Z,97.54
2022-12-17T18:20:20.343Z,97.38
2022-12-17T18:22:50.553Z,97.23
2022-12-17T18:25:19.182Z,97.47
2022-12-17T18:27:47.874Z,97.62
2022-12-17T18:30:16.537Z,97.35
2022-12-17T18:32:48.694Z,97.54
2022-12-17T18:35:17.361Z,97.75
2022-12-17T18:37:45.867Z,97.28
2022-12-17T18:40:14.519Z,97.21
2022-12-17T18:43:01.717Z,97.34
2022-12-17T18:45:30.263Z,97.27
2022-12-17T18:47:58.890Z,97.45
2022-12-17T18:50:27.391Z,97.56
2022-12-17T18:52:55.989Z,97.56
2022-12-17T18:55:24.566Z,97.49
2022-12-17T18:57:53.179Z,97.48
2022-12-17T19:00:21.843Z,97.39
2022-12-17T19:02:50.565Z,97.21
2022-12-17T19:05:19.273Z,97.63
2022-12-17T19:07:47.986Z,97.84
2022-12-17T19:10:16.562Z,97.80
2022-12-17T19:12:45.253Z,97.79
2022-12-17T19:15:13.991Z,97.65
2022-12-17T19:17:42.504Z,97.65
2022-12-17T19:20:11.559Z,97.77
2022-12-17T19:22:40.106Z,97.59
2022-12-17T19:25:09.315Z,97.36
2022-12-17T19:27:37.923Z,97.40
2022-12-17T19:30:07.643Z,97.27
2022-12-17T19:32:36.329Z,97.43
2022-12-17T19:35:05.374Z,97.45
2022-12-17T19:37:33.977Z,97.59
2022-12-17T19:40:02.637Z,97.42
2022-12-17T19:42:37.015Z,97.38
2022-12-17T19:45:07.148Z,97.53
2022-12-17T19:47:35.781Z,97.37
2022-12-17T19:50:05.581Z,97.37
2022-12-17T19:52:34.360Z,97.29
2022-12-17T19:55:03.114Z,97.25
2022-12-17T19:57:34.506Z,97.42
2022-12-17T20:00:04.056Z,97.35
2022-12-17T20:02:33.138Z,97.23
2022-12-17T20:05:02.078Z,97.26
2022-12-17T20:07:30.648Z,97.46
2022-12-17T20:09:59.323Z,97.25
2022-12-17T20:12:27.925Z,97.56
2022-12-17T20:14:56.539Z,97.23
2022-12-17T20:17:26.166Z,97.79
2022-12-17T20:19:56.503Z,97.49
2022-12-17T20:22:26.634Z,97.52
2022-12-17T20:24:55.188Z,97.66
2022-12-17T20:27:23.718Z,97.61
2022-12-17T20:29:53.058Z,97.65
2022-12-17T20:32:21.702Z,97.62
2022-12-17T20:34:50.236Z,97.69
2022-12-17T20:37:18.842Z,97.73
2022-12-17T20:39:47.410Z,97.54
2022-12-17T20:42:17.956Z,97.51
2022-12-17T20:44:51.687Z,97.43
2022-12-17T20:47:21.973Z,97.61
2022-12-17T20:49:50.544Z,97.64
2022-12-17T20:52:19.350Z,97.73
2022-12-17T20:54:49.346Z,97.87
2022-12-17T20:57:18.093Z,97.71
2022-12-17T20:59:46.804Z,97.55
2022-12-17T21:02:16.801Z,97.82
2022-12-17T21:04:48.553Z,97.65
2022-12-17T21:07:17.232Z,97.77
2022-12-17T21:09:45.741Z,97.69
2022-12-17T21:12:14.318Z,97.60
2022-12-17T21:14:42.832Z,97.40
2022-12-17T21:17:15.114Z,97.25
2022-12-17T21:19:43.720Z,97.25
2022-12-17T21:22:13.537Z,97.43
2022-12-17T21:24:42.168Z,97.30
2022-12-17T21:27:14.714Z,97.24
2022-12-17T21:29:43.733Z,97.20
2022-12-17T21:32:12.356Z,97.14
2022-12-17T21:34:41.201Z,97.17
2022-12-17T21:37:11.287Z,97.23
2022-12-17T21:39:40.327Z,97.22
2022-12-17T21:42:27.291Z,97.48
2022-12-17T21:44:55.904Z,97.62
2022-12-17T21:47:24.923Z,97.52
2022-12-17T21:49:53.559Z,97.37
2022-12-17T21:52:22.192Z,97.41
2022-12-17T21:54:50.812Z,97.26
2022-12-17T21:57:19.377Z,97.38
2022-12-17T21:59:48.095Z,97.35
2022-12-17T22:02:17.577Z,97.46
2022-12-17T22:04:46.931Z,97.53
2022-12-17T22:07:27.628Z,97.59
2022-12-17T22:10:46.995Z,97.31
2022-12-17T22:13:08.721Z,97.41
2022-12-17T22:15:43.439Z,97.47
2022-12-17T22:18:17.294Z,97.65
2022-12-17T22:20:46.004Z,97.58
2022-12-17T22:23:17.280Z,97.46
2022-12-17T22:25:46.270Z,97.68
2022-12-17T22:28:14.897Z,97.73
2022-12-17T22:31:02.050Z,97.63
2022-12-17T22:33:53.623Z,97.51
2022-12-17T22:37:38.724Z,97.22
2022-12-17T22:43:36.847Z,97.34
2022-12-17T22:44:38.094Z,97.48
2022-12-17T22:45:11.004Z,97.44
2022-12-17T22:47:40.456Z,97.55
2022-12-17T22:50:09.743Z,97.55
2022-12-17T22:52:38.981Z,97.63
2022-12-17T22:55:08.467Z,97.62
2022-12-17T22:57:38.441Z,97.59
2022-12-17T23:00:20.533Z,97.57
2022-12-17T23:02:56.018Z,97.66
2022-12-17T23:05:26.625Z,97.49
2022-12-17T23:07:56.537Z,97.63
2022-12-17T23:10:27.224Z,97.22
2022-12-17T23:12:55.925Z,97.27
2022-12-17T23:15:28.235Z,97.20
2022-12-17T23:18:00.852Z,97.29
2022-12-17T23:20:32.499Z,97.44
2022-12-17T23:23:01.631Z,97.24
2022-12-17T23:25:31.253Z,97.10
2022-12-17T23:27:59.936Z,96.83
2022-12-17T23:30:28.512Z,96.96
2022-12-17T23:32:57.062Z,96.76
2022-12-17T23:35:25.675Z,96.59
2022-12-17T23:37:54.808Z,96.76
2022-12-17T23:40:23.758Z,97.02
2022-12-17T23:42:52.308Z,96.72
2022-12-17T23:45:20.849Z,96.64
2022-12-17T23:47:49.408Z,96.42
2022-12-17T23:50:17.969Z,96.41
2022-12-17T23:52:46.552Z,96.55
2022-12-17T23:55:15.189Z,96.57
2022-12-17T23:57:43.842Z,96.37
